createdAt,value
2022-11-13T00:01:11.097Z,16.30
2022-11-13T00:03:37.983Z,13.40
2022-11-13T00:06:05.029Z,14.67
2022-11-13T00:08:31.616Z,12.80
2022-11-13T00:11:12.832Z,11.60
2022-11-13T00:13:40.001Z,12.47
2022-11-13T00:16:09.670Z,15.50
2022-11-13T00:18:36.562Z,13.20
2022-11-13T00:21:07.176Z,15.80
2022-11-13T00:23:34.991Z,11.47
2022-11-13T00:26:09.465Z,12.13
2022-11-13T00:28:36.026Z,11.70
2022-11-13T00:31:04.200Z,10.83
2022-11-13T00:33:59.770Z,13.97
2022-11-13T00:36:27.911Z,15.90
2022-11-13T00:38:55.274Z,11.10
2022-11-13T00:41:22.586Z,11.47
2022-11-13T00:43:49.153Z,10.80
2022-11-13T00:46:15.622Z,12.20
2022-11-13T00:48:42.121Z,10.83
2022-11-13T00:51:08.723Z,11.33
2022-11-13T00:53:35.454Z,11.73
2022-11-13T00:56:02.186Z,12.67
2022-11-13T00:58:29.182Z,10.37
2022-11-13T01:00:55.747Z,11.50
2022-11-13T01:03:22.500Z,11.87
2022-11-13T01:05:49.703Z,11.10
2022-11-13T01:08:16.699Z,13.77
2022-11-13T01:10:53.023Z,12.67
2022-11-13T01:13:20.739Z,13.10
2022-11-13T01:15:47.211Z,11.83
2022-11-13T01:18:13.680Z,11.23
2022-11-13T01:20:41.012Z,10.90
2022-11-13T01:23:07.655Z,11.97
2022-11-13T01:25:34.168Z,10.93
2022-11-13T01:28:00.642Z,11.30
2022-11-13T01:30:27.169Z,10.30
2022-11-13T01:32:53.607Z,10.60
2022-11-13T01:35:20.445Z,12.43
2022-11-13T01:37:46.977Z,11.43
2022-11-13T01:40:14.339Z,11.97
2022-11-13T01:42:41.007Z,10.70
2022-11-13T01:45:45.230Z,11.30
2022-11-13T01:48:12.490Z,10.93
2022-11-13T01:50:39.237Z,10.10
2022-11-13T01:53:06.305Z,12.77
2022-11-13T01:55:32.911Z,11.77
2022-11-13T01:57:59.998Z,11.33
2022-11-13T02:00:26.786Z,12.90
2022-11-13T02:02:53.238Z,12.77
2022-11-13T02:05:19.921Z,12.40
2022-11-13T02:07:46.795Z,14.00
2022-11-13T02:10:13.578Z,12.83
2022-11-13T02:12:43.587Z,15.17
2022-11-13T02:15:10.655Z,14.40
2022-11-13T02:17:43.960Z,16.20
2022-11-13T02:20:10.763Z,13.80
2022-11-13T02:23:36.371Z,15.13
2022-11-13T02:26:03.488Z,12.83
2022-11-13T02:28:30.420Z,12.93
2022-11-13T02:30:57.310Z,16.87
2022-11-13T02:33:31.817Z,12.47
2022-11-13T02:35:58.656Z,11.33
2022-11-13T02:38:25.277Z,10.20
2022-11-13T02:40:52.091Z,10.10
2022-11-13T02:43:18.532Z,11.37
2022-11-13T02:45:45.038Z,11.20
2022-11-13T02:48:11.477Z,11.67
2022-11-13T02:50:38.376Z,12.87
2022-11-13T02:53:05.162Z,11.80
2022-11-13T02:55:31.749Z,13.90
2022-11-13T02:57:58.326Z,14.17
2022-11-13T03:00:24.878Z,12.80
2022-11-13T03:02:51.373Z,12.90
2022-11-13T03:05:17.930Z,12.87
2022-11-13T03:07:44.397Z,11.53
2022-11-13T03:10:11.419Z,11.40
2022-11-13T03:12:38.277Z,11.40
2022-11-13T03:15:05.845Z,12.00
2022-11-13T03:17:32.689Z,12.73
2022-11-13T03:19:59.582Z,11.60
2022-11-13T03:22:26.679Z,12.17
2022-11-13T03:24:53.129Z,12.53
2022-11-13T03:27:20.115Z,13.50
2022-11-13T03:29:46.555Z,12.27
2022-11-13T03:32:13.079Z,12.30
2022-11-13T03:34:39.577Z,12.93
2022-11-13T03:37:06.131Z,12.17
2022-11-13T03:39:32.648Z,12.37
2022-11-13T03:41:59.165Z,10.80
2022-11-13T03:44:25.609Z,16.00
2022-11-13T03:46:52.075Z,12.03
2022-11-13T03:49:18.618Z,12.37
2022-11-13T03:51:45.078Z,14.83
2022-11-13T03:54:11.639Z,13.57
2022-11-13T03:56:38.094Z,10.43
2022-11-13T03:59:04.592Z,14.20
2022-11-13T04:01:31.067Z,11.50
2022-11-13T04:03:57.627Z,10.63
2022-11-13T04:06:24.368Z,11.53
2022-11-13T04:08:50.892Z,14.47
2022-11-13T04:11:17.538Z,12.53
2022-11-13T04:13:44.310Z,10.40
2022-11-13T04:16:10.847Z,11.20
2022-11-13T04:18:37.289Z,15.13
2022-11-13T04:21:05.336Z,11.53
2022-11-13T04:23:32.314Z,10.83
2022-11-13T04:25:59.090Z,10.53
2022-11-13T04:28:25.637Z,10.80
2022-11-13T04:30:55.552Z,11.83
2022-11-13T04:33:22.381Z,12.23
2022-11-13T04:35:48.893Z,11.70
2022-11-13T04:38:15.518Z,11.60
2022-11-13T04:40:42.322Z,9.60
2022-11-13T04:43:08.792Z,9.50
2022-11-13T04:45:35.997Z,14.90
2022-11-13T04:48:02.507Z,11.37
2022-11-13T04:50:29.047Z,10.03
2022-11-13T04:52:55.530Z,10.57
2022-11-13T04:55:22.011Z,11.13
2022-11-13T04:57:51.637Z,9.57
2022-11-13T05:00:18.466Z,10.80
2022-11-13T05:02:44.945Z,9.80
2022-11-13T05:05:11.517Z,8.80
2022-11-13T05:07:38.009Z,10.60
2022-11-13T05:10:05.314Z,9.77
2022-11-13T05:12:31.803Z,9.93
2022-11-13T05:14:58.241Z,8.23
2022-11-13T05:17:24.744Z,9.37
2022-11-13T05:19:51.257Z,8.40
2022-11-13T05:22:17.771Z,8.90
2022-11-13T05:24:44.327Z,8.43
2022-11-13T05:27:16.901Z,8.43
2022-11-13T05:29:43.927Z,9.60
2022-11-13T05:32:10.499Z,8.30
2022-11-13T05:34:37.246Z,8.13
2022-11-13T05:37:03.731Z,8.40
2022-11-13T05:39:30.282Z,6.70
2022-11-13T05:41:56.720Z,24.73
2022-11-13T05:44:23.163Z,38.10
2022-11-13T05:46:49.668Z,43.13
2022-11-13T05:49:16.205Z,15.17
2022-11-13T05:51:42.650Z,32.17
2022-11-13T05:54:09.155Z,9.00
2022-11-13T05:56:36.715Z,8.10
2022-11-13T05:59:04.615Z,8.83
2022-11-13T06:01:32.681Z,8.93
2022-11-13T06:04:00.693Z,10.57
2022-11-13T06:06:28.552Z,11.70
2022-11-13T06:08:56.590Z,12.37
2022-11-13T06:11:24.784Z,20.97
2022-11-13T06:13:52.668Z,18.77
2022-11-13T06:16:21.653Z,12.27
2022-11-13T06:18:49.097Z,10.67
2022-11-13T06:21:21.075Z,10.00
2022-11-13T06:23:48.098Z,11.37
2022-11-13T06:26:17.145Z,13.10
2022-11-13T06:28:44.174Z,12.97
2022-11-13T06:31:13.017Z,14.57
2022-11-13T06:33:40.566Z,17.43
2022-11-13T06:36:10.786Z,12.70
2022-11-13T06:38:38.562Z,12.43
2022-11-13T06:41:05.898Z,11.80
2022-11-13T06:43:32.724Z,12.57
2022-11-13T06:46:02.722Z,11.20
2022-11-13T06:48:29.499Z,11.57
2022-11-13T06:51:00.807Z,10.77
2022-11-13T06:53:27.300Z,16.93
2022-11-13T06:55:53.936Z,10.97
2022-11-13T06:58:20.371Z,12.93
2022-11-13T07:00:47.631Z,16.10
2022-11-13T07:03:18.984Z,11.30
2022-11-13T07:05:45.853Z,13.67
2022-11-13T07:08:12.727Z,15.80
2022-11-13T07:10:39.777Z,12.67
2022-11-13T07:13:06.822Z,14.30
2022-11-13T07:15:35.088Z,15.50
2022-11-13T07:18:02.060Z,13.57
2022-11-13T07:20:29.521Z,14.60
2022-11-13T07:23:00.495Z,11.23
2022-11-13T07:25:28.052Z,11.10
2022-11-13T07:27:54.559Z,11.47
2022-11-13T07:30:21.569Z,11.37
2022-11-13T07:32:48.009Z,12.67
2022-11-13T07:35:15.202Z,11.80
2022-11-13T07:37:41.744Z,11.40
2022-11-13T07:40:09.352Z,13.17
2022-11-13T07:42:36.045Z,12.97
2022-11-13T07:45:02.593Z,12.77
2022-11-13T07:47:29.174Z,13.10
2022-11-13T07:50:03.436Z,15.97
2022-11-13T07:52:33.392Z,14.30
2022-11-13T07:54:59.844Z,13.40
2022-11-13T07:57:27.333Z,23.97
2022-11-13T07:59:53.821Z,15.77
2022-11-13T08:02:25.233Z,18.10
2022-11-13T08:04:53.846Z,15.67
2022-11-13T08:07:20.424Z,16.30
2022-11-13T08:09:46.944Z,12.27
2022-11-13T08:12:13.431Z,11.60
2022-11-13T08:14:39.909Z,10.83
2022-11-13T08:17:06.386Z,8.07
2022-11-13T08:19:32.845Z,7.70
2022-11-13T08:21:59.293Z,5.23
2022-11-13T08:24:25.775Z,4.73
2022-11-13T08:26:52.227Z,3.63
2022-11-13T08:29:18.739Z,4.50
2022-11-13T08:31:45.275Z,3.33
2022-11-13T08:34:11.734Z,3.47
2022-11-13T08:36:38.343Z,2.77
2022-11-13T08:39:04.843Z,3.00
2022-11-13T08:41:31.278Z,2.60
2022-11-13T08:43:57.770Z,2.70
2022-11-13T08:46:24.312Z,3.97
2022-11-13T08:48:50.848Z,3.23
2022-11-13T08:51:18.203Z,3.70
2022-11-13T08:53:44.653Z,2.90
2022-11-13T08:56:11.117Z,2.97
2022-11-13T08:58:37.692Z,2.60
2022-11-13T09:01:04.624Z,4.43
2022-11-13T09:03:31.291Z,2.87
2022-11-13T09:05:57.780Z,2.90
2022-11-13T09:08:24.300Z,3.27
2022-11-13T09:10:50.886Z,3.27
2022-11-13T09:13:17.543Z,2.40
2022-11-13T09:15:44.287Z,2.50
2022-11-13T09:18:10.786Z,3.13
2022-11-13T09:20:37.280Z,2.65
2022-11-13T09:23:06.138Z,3.03
2022-11-13T09:25:37.576Z,2.60
2022-11-13T09:28:04.994Z,2.43
2022-11-13T09:30:31.438Z,3.40
2022-11-13T09:33:00.188Z,2.73
2022-11-13T09:35:36.750Z,2.70
2022-11-13T09:38:11.974Z,2.67
2022-11-13T09:40:55.235Z,2.63
2022-11-13T09:43:27.460Z,2.47
2022-11-13T09:45:57.720Z,2.47
2022-11-13T09:48:35.816Z,2.90
2022-11-13T09:51:07.242Z,3.30
2022-11-13T09:53:36.121Z,2.70
2022-11-13T09:56:13.200Z,2.97
2022-11-13T09:58:50.337Z,2.40
2022-11-13T10:01:24.647Z,1.93
2022-11-13T10:04:03.422Z,2.23
2022-11-13T10:07:00.978Z,2.87
2022-11-13T10:09:33.560Z,4.00
2022-11-13T10:12:03.390Z,2.13
2022-11-13T10:14:35.503Z,2.63
2022-11-13T10:17:09.904Z,2.70
2022-11-13T10:19:44.682Z,3.07
2022-11-13T10:22:33.000Z,3.40
2022-11-13T10:25:10.230Z,2.90
2022-11-13T10:27:36.725Z,3.23
2022-11-13T10:30:04.187Z,2.83
2022-11-13T10:32:33.227Z,2.63
2022-11-13T10:35:07.755Z,3.23
2022-11-13T10:37:49.566Z,3.30
2022-11-13T10:40:34.122Z,3.07
2022-11-13T10:43:18.246Z,3.50
2022-11-13T10:46:04.831Z,3.40
2022-11-13T10:48:36.052Z,2.90
2022-11-13T10:51:30.558Z,2.57
2022-11-13T10:53:58.385Z,3.00
2022-11-13T10:56:35.352Z,2.43
2022-11-13T10:59:12.320Z,2.80
2022-11-13T11:01:39.660Z,2.83
2022-11-13T11:04:08.238Z,3.63
2022-11-13T11:09:31.295Z,2.70
2022-11-13T11:12:27.187Z,3.03
2022-11-13T11:14:56.934Z,3.60
2022-11-13T11:17:31.370Z,2.83
2022-11-13T11:20:05.255Z,3.80
2022-11-13T11:22:34.006Z,3.33
2022-11-13T11:25:18.026Z,2.60
2022-11-13T11:27:52.455Z,3.37
2022-11-13T11:30:22.056Z,3.70
2022-11-13T11:32:57.527Z,2.63
2022-11-13T11:35:28.301Z,3.03
2022-11-13T11:38:15.621Z,3.20
2022-11-13T11:40:48.324Z,2.70
2022-11-13T11:43:38.158Z,3.20
2022-11-13T11:46:04.903Z,3.03
2022-11-13T11:48:32.652Z,2.90
2022-11-13T11:51:23.914Z,2.33
2022-11-13T11:53:53.267Z,3.13
2022-11-13T11:56:40.414Z,3.13
2022-11-13T11:59:32.523Z,2.43
2022-11-13T12:02:40.133Z,2.43
2022-11-13T12:05:30.355Z,2.20
2022-11-13T12:08:21.790Z,2.80
2022-11-13T12:10:59.202Z,2.57
2022-11-13T12:13:29.276Z,3.10
2022-11-13T12:16:03.792Z,2.50
2022-11-13T12:18:36.207Z,2.30
2022-11-13T12:21:21.444Z,2.13
2022-11-13T12:24:03.357Z,2.67
2022-11-13T12:26:37.792Z,2.80
2022-11-13T12:29:23.170Z,2.80
2022-11-13T12:32:11.276Z,2.43
2022-11-13T12:34:46.152Z,3.03
2022-11-13T12:37:17.663Z,2.50
2022-11-13T12:40:03.730Z,3.03
2022-11-13T12:42:48.703Z,2.33
2022-11-13T12:45:25.473Z,3.97
2022-11-13T12:47:52.298Z,3.60
2022-11-13T12:50:39.005Z,2.60
2022-11-13T12:53:10.126Z,2.63
2022-11-13T12:55:40.796Z,2.23
2022-11-13T12:58:21.835Z,2.93
2022-11-13T13:01:15.850Z,3.10
2022-11-13T13:04:07.292Z,2.73
2022-11-13T13:07:11.525Z,2.23
2022-11-13T13:10:11.278Z,3.07
2022-11-13T13:12:59.598Z,2.73
2022-11-13T13:15:38.073Z,2.30
2022-11-13T13:18:17.872Z,2.33
2022-11-13T13:21:06.519Z,2.77
2022-11-13T13:23:36.531Z,2.50
2022-11-13T13:26:27.466Z,2.80
2022-11-13T13:28:55.824Z,2.97
2022-11-13T13:32:11.596Z,3.60
2022-11-13T13:35:16.612Z,2.73
2022-11-13T13:38:12.374Z,2.83
2022-11-13T13:40:49.985Z,3.10
2022-11-13T13:43:30.764Z,2.63
2022-11-13T13:46:03.387Z,2.40
2022-11-13T13:48:30.950Z,2.60
2022-11-13T13:50:59.482Z,2.50
2022-11-13T13:53:29.161Z,2.37
2022-11-13T13:55:56.619Z,2.87
2022-11-13T13:58:30.117Z,2.50
2022-11-13T14:01:17.729Z,3.40
2022-11-13T14:03:45.170Z,2.90
2022-11-13T14:06:14.581Z,2.87
2022-11-13T14:08:41.094Z,3.10
2022-11-13T14:11:32.190Z,3.13
2022-11-13T14:14:19.651Z,3.13
2022-11-13T14:16:50.321Z,2.67
2022-11-13T14:19:17.434Z,3.93
2022-11-13T14:21:51.874Z,2.70
2022-11-13T14:24:24.424Z,3.00
2022-11-13T14:26:53.056Z,2.40
2022-11-13T14:29:23.661Z,2.33
2022-11-13T14:31:51.022Z,2.60
2022-11-13T14:34:20.111Z,2.70
2022-11-13T14:36:48.666Z,3.47
2022-11-13T14:39:24.956Z,3.90
2022-11-13T14:41:54.836Z,3.80
2022-11-13T14:44:31.973Z,3.40
2022-11-13T14:47:01.194Z,3.10
2022-11-13T14:49:33.437Z,2.43
2022-11-13T14:52:01.352Z,2.83
2022-11-13T14:55:00.047Z,2.67
2022-11-13T14:57:21.222Z,2.63
2022-11-13T14:59:47.732Z,2.93
2022-11-13T15:02:14.288Z,3.53
2022-11-13T15:04:41.004Z,2.57
2022-11-13T15:07:29.268Z,3.13
2022-11-13T15:09:56.509Z,2.70
2022-11-13T15:12:23.099Z,4.30
2022-11-13T15:14:49.707Z,4.10
2022-11-13T15:17:18.383Z,2.93
2022-11-13T15:19:46.423Z,3.17
2022-11-13T15:22:26.629Z,3.57
2022-11-13T15:24:54.394Z,3.27
2022-11-13T15:27:20.891Z,3.23
2022-11-13T15:29:47.534Z,2.90
2022-11-13T15:32:14.594Z,2.57
2022-11-13T15:34:41.244Z,2.07
2022-11-13T15:37:15.508Z,2.83
2022-11-13T15:39:42.286Z,4.40
2022-11-13T15:42:13.348Z,4.60
2022-11-13T15:44:40.861Z,3.13
2022-11-13T15:47:25.621Z,2.60
2022-11-13T15:50:12.253Z,5.53
2022-11-13T15:52:41.479Z,6.80
2022-11-13T15:55:25.698Z,5.50
2022-11-13T15:57:52.512Z,3.37
2022-11-13T16:00:24.730Z,2.93
2022-11-13T16:02:54.914Z,5.37
2022-11-13T16:05:25.150Z,4.00
2022-11-13T16:07:55.368Z,4.73
2022-11-13T16:10:24.806Z,3.30
2022-11-13T16:12:52.741Z,3.37
2022-11-13T16:15:19.734Z,2.80
2022-11-13T16:17:48.902Z,4.00
2022-11-13T16:20:17.127Z,4.60
2022-11-13T16:22:44.416Z,4.17
2022-11-13T16:25:13.272Z,2.77
2022-11-13T16:27:39.910Z,3.03
2022-11-13T16:30:28.438Z,3.40
2022-11-13T16:32:54.997Z,2.87
2022-11-13T16:35:21.506Z,2.90
2022-11-13T16:37:48.119Z,3.57
2022-11-13T16:40:21.144Z,3.53
2022-11-13T16:42:48.091Z,3.23
2022-11-13T16:45:14.655Z,3.20
2022-11-13T16:47:41.152Z,3.40
2022-11-13T16:50:19.607Z,3.60
2022-11-13T16:52:46.192Z,4.13
2022-11-13T16:55:13.201Z,2.80
2022-11-13T16:57:40.197Z,4.37
2022-11-13T17:00:08.427Z,3.57
2022-11-13T17:02:34.919Z,3.33
2022-11-13T17:05:01.453Z,3.43
2022-11-13T17:07:27.967Z,2.93
2022-11-13T17:10:16.620Z,3.17
2022-11-13T17:12:41.421Z,4.00
2022-11-13T17:15:08.797Z,4.00
2022-11-13T17:17:35.501Z,4.67
2022-11-13T17:20:02.168Z,4.27
2022-11-13T17:22:33.640Z,4.63
2022-11-13T17:25:00.220Z,4.40
2022-11-13T17:27:29.736Z,4.40
2022-11-13T17:29:56.300Z,4.23
2022-11-13T17:32:22.923Z,5.00
2022-11-13T17:34:49.421Z,3.87
2022-11-13T17:37:16.270Z,3.50
2022-11-13T17:39:42.721Z,4.20
2022-11-13T17:42:09.216Z,3.97
2022-11-13T17:44:35.684Z,4.93
2022-11-13T17:47:02.141Z,3.80
2022-11-13T17:49:29.011Z,4.30
2022-11-13T17:51:55.579Z,4.70
2022-11-13T17:54:22.102Z,4.70
2022-11-13T17:56:48.676Z,3.67
2022-11-13T17:59:15.242Z,4.50
2022-11-13T18:01:41.732Z,4.43
2022-11-13T18:04:08.227Z,4.57
2022-11-13T18:06:34.721Z,4.63
2022-11-13T18:09:01.260Z,4.23
2022-11-13T18:11:28.875Z,4.30
2022-11-13T18:13:55.779Z,3.13
2022-11-13T18:16:34.647Z,3.57
2022-11-13T18:19:03.460Z,4.10
2022-11-13T18:21:32.029Z,4.70
2022-11-13T18:23:59.868Z,4.77
2022-11-13T18:26:27.491Z,4.70
2022-11-13T18:28:54.307Z,4.20
2022-11-13T18:31:21.850Z,4.00
2022-11-13T18:33:48.673Z,3.80
2022-11-13T18:36:15.650Z,3.93
2022-11-13T18:38:43.461Z,4.90
2022-11-13T18:41:18.130Z,7.43
2022-11-13T18:43:46.026Z,4.20
2022-11-13T18:46:13.919Z,3.83
2022-11-13T18:48:41.821Z,4.27
2022-11-13T18:51:12.680Z,5.00
2022-11-13T18:53:39.549Z,4.60
2022-11-13T18:56:08.656Z,4.23
2022-11-13T18:58:39.573Z,4.70
2022-11-13T19:01:24.891Z,4.70
2022-11-13T19:04:21.035Z,4.93
2022-11-13T19:06:39.507Z,5.20
2022-11-13T19:09:13.972Z,5.13
2022-11-13T19:11:40.778Z,4.90
2022-11-13T19:14:08.017Z,4.60
2022-11-13T19:16:36.609Z,5.10
2022-11-13T19:19:05.744Z,4.90
2022-11-13T19:21:33.541Z,5.07
2022-11-13T19:24:01.441Z,5.53
2022-11-13T19:26:28.625Z,5.40
2022-11-13T19:28:55.843Z,4.80
2022-11-13T19:31:24.458Z,4.70
2022-11-13T19:33:58.933Z,5.20
2022-11-13T19:36:28.137Z,4.90
2022-11-13T19:38:55.447Z,5.83
2022-11-13T19:41:22.446Z,4.40
2022-11-13T19:43:49.035Z,4.50
2022-11-13T19:46:16.956Z,4.70
2022-11-13T19:48:45.292Z,4.60
2022-11-13T19:51:20.410Z,4.83
2022-11-13T19:53:47.293Z,4.93
2022-11-13T19:56:15.799Z,4.60
2022-11-13T19:58:44.424Z,5.80
2022-11-13T20:01:12.267Z,4.93
2022-11-13T20:03:39.123Z,4.97
2022-11-13T20:06:06.338Z,4.83
2022-11-13T20:08:35.111Z,4.50
2022-11-13T20:11:10.262Z,4.70
2022-11-13T20:13:38.267Z,4.27
2022-11-13T20:16:06.623Z,4.60
2022-11-13T20:18:33.196Z,4.60
2022-11-13T20:20:59.956Z,3.87
2022-11-13T20:23:26.878Z,4.53
2022-11-13T20:26:00.001Z,5.07
2022-11-13T20:28:30.922Z,4.50
2022-11-13T20:31:12.254Z,4.17
2022-11-13T20:33:38.803Z,5.20
2022-11-13T20:36:05.901Z,5.83
2022-11-13T20:38:32.613Z,5.00
2022-11-13T20:41:04.475Z,4.80
2022-11-13T20:43:31.178Z,4.30
2022-11-13T20:46:05.327Z,4.57
2022-11-13T20:48:32.040Z,5.27
2022-11-13T20:51:14.527Z,5.20
2022-11-13T20:53:41.452Z,4.30
2022-11-13T20:56:08.413Z,5.00
2022-11-13T20:58:35.440Z,4.40
2022-11-13T21:01:16.972Z,4.10
2022-11-13T21:03:44.699Z,5.17
2022-11-13T21:06:13.486Z,4.60
2022-11-13T21:08:40.228Z,4.20
2022-11-13T21:11:07.498Z,4.73
2022-11-13T21:13:34.387Z,5.00
2022-11-13T21:16:09.987Z,4.23
2022-11-13T21:18:36.983Z,3.90
2022-11-13T21:21:08.665Z,4.60
2022-11-13T21:23:35.249Z,4.33
2022-11-13T21:26:02.910Z,4.63
2022-11-13T21:28:33.654Z,4.60
2022-11-13T21:31:10.470Z,4.70
2022-11-13T21:33:41.787Z,5.00
2022-11-13T21:36:11.339Z,4.37
2022-11-13T21:38:38.219Z,4.20
2022-11-13T21:41:21.926Z,4.40
2022-11-13T21:43:49.871Z,4.10
2022-11-13T21:46:17.351Z,4.93
2022-11-13T21:48:47.705Z,4.87
2022-11-13T21:51:14.198Z,4.63
2022-11-13T21:53:42.801Z,5.07
2022-11-13T21:56:15.231Z,4.03
2022-11-13T21:58:42.325Z,3.23
2022-11-13T22:01:11.124Z,3.97
2022-11-13T22:03:37.855Z,4.00
2022-11-13T22:06:13.491Z,4.37
2022-11-13T22:08:40.004Z,3.63
2022-11-13T22:11:06.950Z,4.17
2022-11-13T22:13:33.690Z,3.90
2022-11-13T22:16:03.207Z,4.13
2022-11-13T22:18:30.000Z,4.10
2022-11-13T22:21:09.067Z,3.77
2022-11-13T22:23:36.056Z,3.87
2022-11-13T22:26:04.822Z,3.80
2022-11-13T22:28:35.976Z,4.63
2022-11-13T22:31:02.874Z,4.20
2022-11-13T22:33:30.812Z,4.80
2022-11-13T22:36:05.478Z,4.03
2022-11-13T22:38:33.531Z,4.07
2022-11-13T22:41:06.780Z,3.60
2022-11-13T22:43:38.274Z,4.23
2022-11-13T22:46:06.662Z,3.50
2022-11-13T22:48:34.802Z,3.70
2022-11-13T22:51:25.765Z,4.40
2022-11-13T22:53:57.484Z,4.47
2022-11-13T22:56:25.723Z,4.63
2022-11-13T22:58:53.878Z,4.33
2022-11-13T23:01:28.829Z,5.20
2022-11-13T23:03:57.853Z,4.13
2022-11-13T23:06:26.490Z,4.40
2022-11-13T23:08:53.573Z,4.73
2022-11-13T23:11:28.556Z,5.03
2022-11-13T23:13:56.674Z,4.30
2022-11-13T23:16:24.737Z,4.63
2022-11-13T23:18:51.986Z,3.90
2022-11-13T23:21:18.691Z,4.37
2022-11-13T23:23:45.590Z,4.07
2022-11-13T23:26:13.369Z,4.33
2022-11-13T23:28:40.274Z,3.80
2022-11-13T23:31:07.587Z,4.50
2022-11-13T23:33:34.521Z,5.13
2022-11-13T23:36:01.213Z,4.03
2022-11-13T23:38:28.087Z,4.17
2022-11-13T23:40:56.067Z,4.23
2022-11-13T23:43:23.540Z,4.30
2022-11-13T23:45:51.806Z,4.10
2022-11-13T23:48:18.680Z,4.43
2022-11-13T23:50:45.669Z,4.17
2022-11-13T23:53:12.601Z,4.67
2022-11-13T23:55:39.886Z,4.20
2022-11-13T23:58:09.796Z,4.20
